sensor_id;sensor_type;location;lat;lon;timestamp;pressure;altitude;pressure_sealevel;temperature;humidity
47104;BME280;32853;52.164;5.400;2024-02-26T00:02:15;99930.09;;;8.06;100.00
47104;BME280;32853;52.164;5.400;2024-02-26T00:04:40;99932.50;;;8.29;100.00
47104;BME280;32853;52.164;5.400;2024-02-26T00:07:09;99939.28;;;8.33;100.00
47104;BME280;32853;52.164;5.400;2024-02-26T00:09:34;99931.38;;;8.36;100.00
47104;BME280;32853;52.164;5.400;2024-02-26T00:12:05;99944.59;;;8.32;100.00
47104;BME280;32853;52.164;5.400;2024-02-26T00:14:31;99938.50;;;8.12;100.00
47104;BME280;32853;52.164;5.400;2024-02-26T00:17:00;99932.22;;;8.16;100.00
47104;BME280;32853;52.164;5.400;2024-02-26T00:19:26;99942.63;;;8.16;100.00
47104;BME280;32853;52.164;5.400;2024-02-26T00:31:00;99945.78;;;8.04;100.00
47104;BME280;32853;52.164;5.400;2024-02-26T00:54:34;99955.41;;;8.23;100.00
47104;BME280;32853;52.164;5.400;2024-02-26T00:57:21;99955.50;;;8.20;100.00
47104;BME280;32853;52.164;5.400;2024-02-26T01:02:48;99945.38;;;8.13;100.00
47104;BME280;32853;52.164;5.400;2024-02-26T01:05:22;99952.81;;;8.02;100.00
47104;BME280;32853;52.164;5.400;2024-02-26T01:16:38;99958.03;;;7.82;100.00
47104;BME280;32853;52.164;5.400;2024-02-26T01:19:38;99948.47;;;8.03;100.00
47104;BME280;32853;52.164;5.400;2024-02-26T01:22:15;99949.75;;;7.93;100.00
47104;BME280;32853;52.164;5.400;2024-02-26T01:24:49;99950.22;;;8.02;100.00
47104;BME280;32853;52.164;5.400;2024-02-26T01:27:28;99950.28;;;8.01;100.00
47104;BME280;32853;52.164;5.400;2024-02-26T01:30:14;99948.28;;;7.87;100.00
47104;BME280;32853;52.164;5.400;2024-02-26T01:32:57;99950.53;;;7.95;100.00
47104;BME280;32853;52.164;5.400;2024-02-26T01:41:14;99941.88;;;7.74;100.00
47104;BME280;32853;52.164;5.400;2024-02-26T01:49:13;99928.41;;;7.64;100.00
47104;BME280;32853;52.164;5.400;2024-02-26T01:58:02;99941.84;;;7.55;100.00
47104;BME280;32853;52.164;5.400;2024-02-26T02:09:52;99956.34;;;7.61;100.00
47104;BME280;32853;52.164;5.400;2024-02-26T02:12:36;99959.00;;;7.59;100.00
47104;BME280;32853;52.164;5.400;2024-02-26T02:15:12;99963.16;;;7.83;100.00
47104;BME280;32853;52.164;5.400;2024-02-26T02:18:22;99955.09;;;7.69;100.00
47104;BME280;32853;52.164;5.400;2024-02-26T02:29:38;99973.84;;;7.57;100.00
47104;BME280;32853;52.164;5.400;2024-02-26T02:35:25;99966.44;;;7.68;100.00
47104;BME280;32853;52.164;5.400;2024-02-26T02:37:56;99977.53;;;7.51;100.00
47104;BME280;32853;52.164;5.400;2024-02-26T02:51:51;99992.78;;;7.81;100.00
47104;BME280;32853;52.164;5.400;2024-02-26T03:28:21;100036.50;;;7.51;100.00
47104;BME280;32853;52.164;5.400;2024-02-26T03:42:27;100059.34;;;7.86;100.00
47104;BME280;32853;52.164;5.400;2024-02-26T03:44:59;100051.53;;;7.86;100.00
47104;BME280;32853;52.164;5.400;2024-02-26T03:47:34;100055.06;;;7.85;100.00
47104;BME280;32853;52.164;5.400;2024-02-26T03:49:59;100058.72;;;8.02;100.00
47104;BME280;32853;52.164;5.400;2024-02-26T03:52:29;100057.03;;;8.01;100.00
47104;BME280;32853;52.164;5.400;2024-02-26T03:57:55;100058.22;;;8.14;100.00
47104;BME280;32853;52.164;5.400;2024-02-26T04:00:30;100062.63;;;7.92;100.00
47104;BME280;32853;52.164;5.400;2024-02-26T04:02:55;100065.44;;;7.87;100.00
47104;BME280;32853;52.164;5.400;2024-02-26T04:05:23;100065.53;;;7.84;100.00
47104;BME280;32853;52.164;5.400;2024-02-26T04:08:00;100065.81;;;7.78;100.00
47104;BME280;32853;52.164;5.400;2024-02-26T04:10:29;100070.81;;;7.82;100.00
47104;BME280;32853;52.164;5.400;2024-02-26T04:13:00;100064.38;;;7.91;100.00
47104;BME280;32853;52.164;5.400;2024-02-26T04:15:34;100060.19;;;7.67;100.00
47104;BME280;32853;52.164;5.400;2024-02-26T04:18:02;100067.00;;;7.69;100.00
47104;BME280;32853;52.164;5.400;2024-02-26T04:20:28;100071.50;;;7.66;100.00
47104;BME280;32853;52.164;5.400;2024-02-26T04:22:56;100071.31;;;7.70;100.00
47104;BME280;32853;52.164;5.400;2024-02-26T04:25:22;100072.34;;;7.66;100.00
47104;BME280;32853;52.164;5.400;2024-02-26T04:27:54;100070.75;;;7.62;100.00
47104;BME280;32853;52.164;5.400;2024-02-26T04:30:24;100074.03;;;7.45;100.00
47104;BME280;32853;52.164;5.400;2024-02-26T04:32:54;100084.75;;;7.60;100.00
47104;BME280;32853;52.164;5.400;2024-02-26T04:38:09;100086.22;;;7.45;100.00
47104;BME280;32853;52.164;5.400;2024-02-26T04:40:45;100084.69;;;7.39;100.00
47104;BME280;32853;52.164;5.400;2024-02-26T04:43:26;100090.78;;;7.38;100.00
47104;BME280;32853;52.164;5.400;2024-02-26T04:45:54;100086.72;;;7.31;100.00
47104;BME280;32853;52.164;5.400;2024-02-26T04:48:38;100088.91;;;7.42;100.00
47104;BME280;32853;52.164;5.400;2024-02-26T04:51:09;100090.38;;;7.49;100.00
47104;BME280;32853;52.164;5.400;2024-02-26T04:53:34;100084.31;;;7.48;100.00
47104;BME280;32853;52.164;5.400;2024-02-26T04:56:10;100087.91;;;7.46;100.00
47104;BME280;32853;52.164;5.400;2024-02-26T04:58:37;100092.72;;;7.33;100.00
47104;BME280;32853;52.164;5.400;2024-02-26T05:01:19;100099.94;;;7.70;100.00
47104;BME280;32853;52.164;5.400;2024-02-26T05:04:01;100104.50;;;7.42;100.00
47104;BME280;32853;52.164;5.400;2024-02-26T05:06:36;100102.09;;;7.37;100.00
47104;BME280;32853;52.164;5.400;2024-02-26T05:09:08;100108.34;;;7.55;100.00
47104;BME280;32853;52.164;5.400;2024-02-26T05:14:20;100120.38;;;7.36;100.00
47104;BME280;32853;52.164;5.400;2024-02-26T05:16:46;100118.63;;;7.58;100.00
47104;BME280;32853;52.164;5.400;2024-02-26T05:19:29;100121.72;;;7.46;100.00
47104;BME280;32853;52.164;5.400;2024-02-26T05:22:06;100113.81;;;7.25;100.00
47104;BME280;32853;52.164;5.400;2024-02-26T05:24:49;100113.69;;;7.28;100.00
47104;BME280;32853;52.164;5.400;2024-02-26T05:27:16;100130.09;;;7.54;100.00
47104;BME280;32853;52.164;5.400;2024-02-26T05:32:16;100133.03;;;7.45;100.00
47104;BME280;32853;52.164;5.400;2024-02-26T05:34:44;100130.69;;;7.61;100.00
47104;BME280;32853;52.164;5.400;2024-02-26T05:37:25;100121.28;;;7.35;100.00
47104;BME280;32853;52.164;5.400;2024-02-26T05:39:56;100131.84;;;7.30;100.00
47104;BME280;32853;52.164;5.400;2024-02-26T05:42:24;100141.41;;;7.06;100.00
47104;BME280;32853;52.164;5.400;2024-02-26T05:44:49;100134.69;;;7.24;100.00
47104;BME280;32853;52.164;5.400;2024-02-26T05:47:15;100137.50;;;7.41;100.00
47104;BME280;32853;52.164;5.400;2024-02-26T05:49:47;100140.78;;;7.46;100.00
47104;BME280;32853;52.164;5.400;2024-02-26T05:52:17;100141.91;;;7.16;100.00
47104;BME280;32853;52.164;5.400;2024-02-26T05:54:42;100144.13;;;7.03;100.00
47104;BME280;32853;52.164;5.400;2024-02-26T05:57:15;100143.59;;;6.93;100.00
47104;BME280;32853;52.164;5.400;2024-02-26T05:59:41;100154.69;;;6.98;100.00
47104;BME280;32853;52.164;5.400;2024-02-26T06:05:01;100157.50;;;6.92;100.00
47104;BME280;32853;52.164;5.400;2024-02-26T06:07:27;100165.97;;;6.97;100.00
47104;BME280;32853;52.164;5.400;2024-02-26T06:09:54;100164.59;;;7.12;100.00
47104;BME280;32853;52.164;5.400;2024-02-26T06:12:23;100158.00;;;6.79;100.00
47104;BME280;32853;52.164;5.400;2024-02-26T06:15:04;100155.09;;;6.88;100.00
47104;BME280;32853;52.164;5.400;2024-02-26T06:17:37;100163.44;;;6.96;100.00
47104;BME280;32853;52.164;5.400;2024-02-26T06:20:10;100171.47;;;6.90;100.00
47104;BME280;32853;52.164;5.400;2024-02-26T06:22:54;100180.75;;;7.20;100.00
47104;BME280;32853;52.164;5.400;2024-02-26T06:25:27;100188.44;;;6.75;100.00
47104;BME280;32853;52.164;5.400;2024-02-26T06:27:55;100190.81;;;6.81;100.00
47104;BME280;32853;52.164;5.400;2024-02-26T06:33:17;100189.34;;;6.99;100.00
47104;BME280;32853;52.164;5.400;2024-02-26T06:36:05;100188.75;;;6.91;100.00
47104;BME280;32853;52.164;5.400;2024-02-26T06:38:34;100186.16;;;6.91;100.00
47104;BME280;32853;52.164;5.400;2024-02-26T06:41:02;100194.28;;;6.82;100.00
47104;BME280;32853;52.164;5.400;2024-02-26T06:43:30;100195.81;;;6.87;100.00
47104;BME280;32853;52.164;5.400;2024-02-26T06:46:05;100203.88;;;7.05;100.00
47104;BME280;32853;52.164;5.400;2024-02-26T06:48:41;100199.38;;;7.10;100.00
47104;BME280;32853;52.164;5.400;2024-02-26T06:51:07;100209.19;;;7.02;100.00
47104;BME280;32853;52.164;5.400;2024-02-26T06:53:39;100215.06;;;6.82;100.00
47104;BME280;32853;52.164;5.400;2024-02-26T06:56:07;100218.66;;;7.03;100.00
47104;BME280;32853;52.164;5.400;2024-02-26T06:58:50;100218.88;;;6.96;100.00
47104;BME280;32853;52.164;5.400;2024-02-26T07:01:17;100221.06;;;6.84;100.00
47104;BME280;32853;52.164;5.400;2024-02-26T07:03:43;100223.75;;;7.06;100.00
47104;BME280;32853;52.164;5.400;2024-02-26T07:06:09;100227.69;;;6.92;100.00
47104;BME280;32853;52.164;5.400;2024-02-26T07:14:23;100232.94;;;6.66;100.00
47104;BME280;32853;52.164;5.400;2024-02-26T07:16:53;100241.84;;;6.84;100.00
47104;BME280;32853;52.164;5.400;2024-02-26T07:19:20;100250.53;;;6.83;100.00
47104;BME280;32853;52.164;5.400;2024-02-26T07:21:45;100242.25;;;6.72;100.00
47104;BME280;32853;52.164;5.400;2024-02-26T07:24:12;100254.16;;;6.79;100.00
47104;BME280;32853;52.164;5.400;2024-02-26T07:26:37;100253.88;;;6.86;100.00
47104;BME280;32853;52.164;5.400;2024-02-26T07:29:02;100259.66;;;6.69;100.00
47104;BME280;32853;52.164;5.400;2024-02-26T07:31:34;100260.44;;;6.72;100.00
47104;BME280;32853;52.164;5.400;2024-02-26T07:34:12;100263.28;;;6.64;100.00
47104;BME280;32853;52.164;5.400;2024-02-26T07:45:48;100262.63;;;6.31;100.00
47104;BME280;32853;52.164;5.400;2024-02-26T07:48:14;100259.72;;;6.68;100.00
47104;BME280;32853;52.164;5.400;2024-02-26T07:50:55;100267.81;;;6.59;100.00
47104;BME280;32853;52.164;5.400;2024-02-26T07:53:24;100272.75;;;6.66;100.00
47104;BME280;32853;52.164;5.400;2024-02-26T07:55:49;100276.66;;;6.80;100.00
47104;BME280;32853;52.164;5.400;2024-02-26T07:58:18;100287.28;;;6.72;100.00
47104;BME280;32853;52.164;5.400;2024-02-26T08:03:29;100294.91;;;6.50;100.00
47104;BME280;32853;52.164;5.400;2024-02-26T08:06:08;100300.59;;;6.35;100.00
47104;BME280;32853;52.164;5.400;2024-02-26T08:11:22;100301.63;;;6.57;100.00
47104;BME280;32853;52.164;5.400;2024-02-26T08:13:54;100307.28;;;6.44;100.00
47104;BME280;32853;52.164;5.400;2024-02-26T08:16:20;100311.47;;;6.48;100.00
47104;BME280;32853;52.164;5.400;2024-02-26T08:18:49;100312.47;;;6.42;100.00
47104;BME280;32853;52.164;5.400;2024-02-26T08:21:15;100319.59;;;6.63;100.00
47104;BME280;32853;52.164;5.400;2024-02-26T08:23:41;100323.78;;;6.69;100.00
47104;BME280;32853;52.164;5.400;2024-02-26T08:26:12;100315.75;;;6.77;100.00
47104;BME280;32853;52.164;5.400;2024-02-26T08:28:40;100319.47;;;6.68;100.00
47104;BME280;32853;52.164;5.400;2024-02-26T08:31:08;100329.09;;;6.64;100.00
47104;BME280;32853;52.164;5.400;2024-02-26T08:33:35;100330.25;;;6.56;100.00
47104;BME280;32853;52.164;5.400;2024-02-26T08:36:08;100327.56;;;6.59;100.00
47104;BME280;32853;52.164;5.400;2024-02-26T08:38:34;100333.03;;;6.50;100.00
47104;BME280;32853;52.164;5.400;2024-02-26T08:41:01;100342.59;;;6.49;100.00
47104;BME280;32853;52.164;5.400;2024-02-26T08:43:27;100338.00;;;6.84;100.00
47104;BME280;32853;52.164;5.400;2024-02-26T08:45:53;100338.81;;;6.59;100.00
47104;BME280;32853;52.164;5.400;2024-02-26T08:48:18;100343.44;;;6.76;100.00
47104;BME280;32853;52.164;5.400;2024-02-26T08:50:56;100351.81;;;6.86;100.00
47104;BME280;32853;52.164;5.400;2024-02-26T08:53:21;100358.00;;;6.82;100.00
47104;BME280;32853;52.164;5.400;2024-02-26T08:55:47;100354.03;;;6.42;100.00
47104;BME280;32853;52.164;5.400;2024-02-26T08:58:12;100367.66;;;6.78;100.00
47104;BME280;32853;52.164;5.400;2024-02-26T09:03:11;100375.88;;;6.36;100.00
47104;BME280;32853;52.164;5.400;2024-02-26T09:05:43;100378.63;;;6.30;100.00
47104;BME280;32853;52.164;5.400;2024-02-26T09:08:08;100379.94;;;6.45;100.00
47104;BME280;32853;52.164;5.400;2024-02-26T09:10:34;100375.78;;;6.39;100.00
47104;BME280;32853;52.164;5.400;2024-02-26T09:12:59;100388.84;;;6.64;100.00
47104;BME280;32853;52.164;5.400;2024-02-26T09:15:25;100391.00;;;6.80;100.00
47104;BME280;32853;52.164;5.400;2024-02-26T09:17:51;100384.72;;;6.29;100.00
47104;BME280;32853;52.164;5.400;2024-02-26T09:20:17;100387.78;;;6.44;100.00
47104;BME280;32853;52.164;5.400;2024-02-26T09:22:50;100391.66;;;6.58;100.00
47104;BME280;32853;52.164;5.400;2024-02-26T09:25:22;100394.47;;;6.51;100.00
47104;BME280;32853;52.164;5.400;2024-02-26T09:27:51;100393.84;;;6.43;100.00
47104;BME280;32853;52.164;5.400;2024-02-26T09:30:26;100390.38;;;6.72;100.00
47104;BME280;32853;52.164;5.400;2024-02-26T09:32:52;100398.44;;;6.62;100.00
47104;BME280;32853;52.164;5.400;2024-02-26T09:35:20;100411.78;;;6.52;100.00
47104;BME280;32853;52.164;5.400;2024-02-26T09:37:46;100406.19;;;6.65;100.00
47104;BME280;32853;52.164;5.400;2024-02-26T09:40:19;100420.56;;;6.48;100.00
47104;BME280;32853;52.164;5.400;2024-02-26T09:42:44;100414.19;;;6.58;100.00
47104;BME280;32853;52.164;5.400;2024-02-26T09:45:12;100423.38;;;6.69;100.00
47104;BME280;32853;52.164;5.400;2024-02-26T09:47:42;100416.91;;;6.53;100.00
47104;BME280;32853;52.164;5.400;2024-02-26T09:50:10;100429.19;;;6.78;100.00
47104;BME280;32853;52.164;5.400;2024-02-26T09:52:38;100430.72;;;6.83;100.00
47104;BME280;32853;52.164;5.400;2024-02-26T09:55:05;100421.09;;;6.59;100.00
47104;BME280;32853;52.164;5.400;2024-02-26T09:57:33;100423.63;;;6.32;100.00
47104;BME280;32853;52.164;5.400;2024-02-26T09:59:59;100433.50;;;6.49;100.00
47104;BME280;32853;52.164;5.400;2024-02-26T10:02:28;100439.59;;;6.48;100.00
47104;BME280;32853;52.164;5.400;2024-02-26T10:04:56;100440.66;;;6.41;100.00
47104;BME280;32853;52.164;5.400;2024-02-26T10:07:22;100448.09;;;6.24;100.00
47104;BME280;32853;52.164;5.400;2024-02-26T10:09:48;100451.38;;;6.60;100.00
47104;BME280;32853;52.164;5.400;2024-02-26T10:12:18;100461.53;;;6.38;100.00
47104;BME280;32853;52.164;5.400;2024-02-26T10:14:43;100459.16;;;6.60;100.00
47104;BME280;32853;52.164;5.400;2024-02-26T10:17:08;100466.69;;;6.39;100.00
47104;BME280;32853;52.164;5.400;2024-02-26T10:19:37;100462.59;;;6.90;100.00
47104;BME280;32853;52.164;5.400;2024-02-26T10:22:02;100466.88;;;6.33;100.00
47104;BME280;32853;52.164;5.400;2024-02-26T10:24:29;100453.81;;;6.64;100.00
47104;BME280;32853;52.164;5.400;2024-02-26T10:26:55;100459.47;;;6.49;100.00
47104;BME280;32853;52.164;5.400;2024-02-26T10:29:21;100463.25;;;6.68;100.00
47104;BME280;32853;52.164;5.400;2024-02-26T10:31:55;100469.09;;;6.75;100.00
47104;BME280;32853;52.164;5.400;2024-02-26T10:34:21;100470.13;;;6.99;100.00
47104;BME280;32853;52.164;5.400;2024-02-26T10:36:47;100479.16;;;6.86;100.00
47104;BME280;32853;52.164;5.400;2024-02-26T10:39:12;100487.44;;;6.70;100.00
47104;BME280;32853;52.164;5.400;2024-02-26T10:41:42;100498.63;;;6.73;100.00
47104;BME280;32853;52.164;5.400;2024-02-26T10:44:10;100494.84;;;6.53;100.00
47104;BME280;32853;52.164;5.400;2024-02-26T10:46:48;100496.66;;;7.09;100.00
47104;BME280;32853;52.164;5.400;2024-02-26T10:49:17;100501.53;;;7.19;100.00
47104;BME280;32853;52.164;5.400;2024-02-26T10:51:50;100505.47;;;7.05;100.00
47104;BME280;32853;52.164;5.400;2024-02-26T10:54:17;100514.72;;;6.85;100.00
47104;BME280;32853;52.164;5.400;2024-02-26T10:56:44;100507.50;;;6.95;100.00
47104;BME280;32853;52.164;5.400;2024-02-26T10:59:17;100526.09;;;6.81;100.00
47104;BME280;32853;52.164;5.400;2024-02-26T11:01:47;100529.13;;;6.95;100.00
47104;BME280;32853;52.164;5.400;2024-02-26T11:04:13;100530.81;;;7.52;100.00
47104;BME280;32853;52.164;5.400;2024-02-26T11:06:39;100524.03;;;7.20;100.00
47104;BME280;32853;52.164;5.400;2024-02-26T11:09:06;100532.13;;;7.39;100.00
47104;BME280;32853;52.164;5.400;2024-02-26T11:11:31;100543.72;;;7.57;100.00
47104;BME280;32853;52.164;5.400;2024-02-26T11:13:59;100541.88;;;7.33;100.00
47104;BME280;32853;52.164;5.400;2024-02-26T11:16:27;100540.44;;;7.50;100.00
47104;BME280;32853;52.164;5.400;2024-02-26T11:18:53;100542.34;;;7.45;100.00
47104;BME280;32853;52.164;5.400;2024-02-26T11:21:20;100546.31;;;7.29;100.00
47104;BME280;32853;52.164;5.400;2024-02-26T11:24:03;100556.59;;;7.60;100.00
47104;BME280;32853;52.164;5.400;2024-02-26T11:26:29;100547.91;;;7.61;100.00
47104;BME280;32853;52.164;5.400;2024-02-26T11:28:56;100559.50;;;7.51;100.00
47104;BME280;32853;52.164;5.400;2024-02-26T11:31:24;100553.50;;;7.49;100.00
47104;BME280;32853;52.164;5.400;2024-02-26T11:33:52;100550.94;;;7.74;100.00
47104;BME280;32853;52.164;5.400;2024-02-26T11:36:18;100557.47;;;7.61;100.00
47104;BME280;32853;52.164;5.400;2024-02-26T11:38:52;100563.16;;;7.72;100.00
47104;BME280;32853;52.164;5.400;2024-02-26T11:41:19;100570.16;;;7.43;100.00
47104;BME280;32853;52.164;5.400;2024-02-26T11:46:31;100577.25;;;7.10;100.00
47104;BME280;32853;52.164;5.400;2024-02-26T11:49:01;100564.81;;;7.48;100.00
47104;BME280;32853;52.164;5.400;2024-02-26T11:51:34;100566.47;;;7.50;100.00
47104;BME280;32853;52.164;5.400;2024-02-26T11:54:00;100576.75;;;7.55;100.00
47104;BME280;32853;52.164;5.400;2024-02-26T11:59:19;100586.31;;;7.81;100.00
47104;BME280;32853;52.164;5.400;2024-02-26T12:02:00;100590.44;;;7.60;100.00
47104;BME280;32853;52.164;5.400;2024-02-26T12:04:26;100594.09;;;7.54;100.00
47104;BME280;32853;52.164;5.400;2024-02-26T12:07:00;100578.84;;;7.42;100.00
47104;BME280;32853;52.164;5.400;2024-02-26T12:12:23;100610.41;;;7.60;100.00
47104;BME280;32853;52.164;5.400;2024-02-26T12:14:53;100600.75;;;7.63;100.00
47104;BME280;32853;52.164;5.400;2024-02-26T12:17:25;100612.66;;;7.44;100.00
47104;BME280;32853;52.164;5.400;2024-02-26T12:19:51;100609.13;;;7.73;100.00
47104;BME280;32853;52.164;5.400;2024-02-26T12:22:18;100615.94;;;7.77;100.00
47104;BME280;32853;52.164;5.400;2024-02-26T12:24:43;100620.16;;;7.53;100.00
47104;BME280;32853;52.164;5.400;2024-02-26T12:29:40;100625.31;;;7.82;100.00
47104;BME280;32853;52.164;5.400;2024-02-26T12:32:11;100629.03;;;7.74;100.00
47104;BME280;32853;52.164;5.400;2024-02-26T12:34:56;100624.91;;;7.68;100.00
47104;BME280;32853;52.164;5.400;2024-02-26T12:37:27;100627.63;;;7.64;100.00
47104;BME280;32853;52.164;5.400;2024-02-26T12:39:54;100631.53;;;7.78;100.00
47104;BME280;32853;52.164;5.400;2024-02-26T12:42:19;100633.59;;;7.67;100.00
47104;BME280;32853;52.164;5.400;2024-02-26T12:44:47;100636.50;;;8.12;100.00
47104;BME280;32853;52.164;5.400;2024-02-26T12:47:12;100639.84;;;7.90;100.00
47104;BME280;32853;52.164;5.400;2024-02-26T12:49:54;100647.75;;;7.58;100.00
47104;BME280;32853;52.164;5.400;2024-02-26T12:52:22;100645.94;;;7.33;100.00
47104;BME280;32853;52.164;5.400;2024-02-26T12:54:47;100645.09;;;7.31;100.00
47104;BME280;32853;52.164;5.400;2024-02-26T12:57:13;100644.94;;;7.65;100.00
47104;BME280;32853;52.164;5.400;2024-02-26T12:59:47;100662.81;;;7.77;100.00
47104;BME280;32853;52.164;5.400;2024-02-26T13:02:12;100654.59;;;7.61;100.00
47104;BME280;32853;52.164;5.400;2024-02-26T13:04:50;100658.06;;;7.62;100.00
47104;BME280;32853;52.164;5.400;2024-02-26T13:07:20;100666.06;;;7.55;100.00
47104;BME280;32853;52.164;5.400;2024-02-26T13:09:46;100669.72;;;7.19;100.00
47104;BME280;32853;52.164;5.400;2024-02-26T13:12:11;100667.13;;;7.48;100.00
47104;BME280;32853;52.164;5.400;2024-02-26T13:14:46;100666.81;;;7.59;100.00
47104;BME280;32853;52.164;5.400;2024-02-26T13:17:23;100673.09;;;7.52;100.00
47104;BME280;32853;52.164;5.400;2024-02-26T13:20:02;100673.72;;;7.31;100.00
47104;BME280;32853;52.164;5.400;2024-02-26T13:22:28;100679.78;;;7.31;100.00
47104;BME280;32853;52.164;5.400;2024-02-26T13:25:00;100681.53;;;7.31;100.00
47104;BME280;32853;52.164;5.400;2024-02-26T13:27:28;100673.94;;;7.52;100.00
47104;BME280;32853;52.164;5.400;2024-02-26T13:32:39;100696.38;;;7.27;100.00
47104;BME280;32853;52.164;5.400;2024-02-26T13:35:09;100688.91;;;7.46;100.00
47104;BME280;32853;52.164;5.400;2024-02-26T13:37:38;100679.09;;;7.55;100.00
47104;BME280;32853;52.164;5.400;2024-02-26T13:40:10;100693.16;;;7.78;100.00
47104;BME280;32853;52.164;5.400;2024-02-26T13:42:36;100695.47;;;7.87;100.00
47104;BME280;32853;52.164;5.400;2024-02-26T13:45:02;100698.81;;;7.91;100.00
47104;BME280;32853;52.164;5.400;2024-02-26T13:47:27;100710.50;;;8.05;100.00
47104;BME280;32853;52.164;5.400;2024-02-26T13:49:52;100702.63;;;8.07;100.00
47104;BME280;32853;52.164;5.400;2024-02-26T13:52:26;100703.66;;;8.29;100.00
47104;BME280;32853;52.164;5.400;2024-02-26T13:54:51;100708.66;;;8.09;100.00
47104;BME280;32853;52.164;5.400;2024-02-26T13:57:17;100713.72;;;8.41;100.00
47104;BME280;32853;52.164;5.400;2024-02-26T13:59:42;100713.06;;;8.07;100.00
47104;BME280;32853;52.164;5.400;2024-02-26T14:02:08;100724.16;;;8.13;100.00
47104;BME280;32853;52.164;5.400;2024-02-26T14:07:03;100722.63;;;8.06;100.00
47104;BME280;32853;52.164;5.400;2024-02-26T14:09:29;100728.50;;;8.13;100.00
47104;BME280;32853;52.164;5.400;2024-02-26T14:11:54;100731.63;;;8.24;100.00
47104;BME280;32853;52.164;5.400;2024-02-26T14:14:19;100735.28;;;8.47;100.00
47104;BME280;32853;52.164;5.400;2024-02-26T14:16:44;100734.47;;;8.44;100.00
47104;BME280;32853;52.164;5.400;2024-02-26T14:19:10;100743.84;;;8.22;100.00
47104;BME280;32853;52.164;5.400;2024-02-26T14:21:35;100748.28;;;8.19;100.00
47104;BME280;32853;52.164;5.400;2024-02-26T14:24:00;100752.66;;;8.18;100.00
47104;BME280;32853;52.164;5.400;2024-02-26T14:26:25;100756.31;;;8.12;100.00
47104;BME280;32853;52.164;5.400;2024-02-26T14:28:59;100754.31;;;8.49;100.00
47104;BME280;32853;52.164;5.400;2024-02-26T14:31:31;100758.06;;;8.40;100.00
47104;BME280;32853;52.164;5.400;2024-02-26T14:33:58;100773.53;;;8.16;100.00
47104;BME280;32853;52.164;5.400;2024-02-26T14:36:23;100762.88;;;7.96;100.00
47104;BME280;32853;52.164;5.400;2024-02-26T14:38:49;100785.31;;;8.28;100.00
47104;BME280;32853;52.164;5.400;2024-02-26T14:41:22;100782.72;;;8.28;100.00
47104;BME280;32853;52.164;5.400;2024-02-26T14:43:47;100782.84;;;7.96;100.00
47104;BME280;32853;52.164;5.400;2024-02-26T14:46:19;100790.00;;;8.47;100.00
47104;BME280;32853;52.164;5.400;2024-02-26T14:48:45;100788.66;;;8.33;100.00
47104;BME280;32853;52.164;5.400;2024-02-26T14:51:10;100801.00;;;8.27;100.00
47104;BME280;32853;52.164;5.400;2024-02-26T14:53:39;100804.94;;;8.12;100.00
47104;BME280;32853;52.164;5.400;2024-02-26T14:56:15;100797.50;;;8.28;100.00
47104;BME280;32853;52.164;5.400;2024-02-26T14:58:44;100803.31;;;8.37;100.00
47104;BME280;32853;52.164;5.400;2024-02-26T15:01:10;100813.56;;;8.14;100.00
47104;BME280;32853;52.164;5.400;2024-02-26T15:03:40;100814.97;;;8.54;100.00
47104;BME280;32853;52.164;5.400;2024-02-26T15:06:06;100815.50;;;8.63;100.00
47104;BME280;32853;52.164;5.400;2024-02-26T15:08:31;100817.66;;;8.23;100.00
47104;BME280;32853;52.164;5.400;2024-02-26T15:13:27;100832.53;;;8.18;100.00
47104;BME280;32853;52.164;5.400;2024-02-26T15:15:52;100827.53;;;8.11;100.00
47104;BME280;32853;52.164;5.400;2024-02-26T15:18:18;100835.44;;;8.38;100.00
47104;BME280;32853;52.164;5.400;2024-02-26T15:23:28;100836.28;;;8.38;100.00
47104;BME280;32853;52.164;5.400;2024-02-26T15:25:53;100844.53;;;8.53;100.00
47104;BME280;32853;52.164;5.400;2024-02-26T15:28:22;100835.22;;;8.46;100.00
47104;BME280;32853;52.164;5.400;2024-02-26T15:30:57;100846.97;;;8.29;100.00
47104;BME280;32853;52.164;5.400;2024-02-26T15:33:23;100853.47;;;8.72;100.00
47104;BME280;32853;52.164;5.400;2024-02-26T15:35:49;100847.84;;;8.58;100.00
47104;BME280;32853;52.164;5.400;2024-02-26T15:38:14;100850.03;;;8.71;100.00
47104;BME280;32853;52.164;5.400;2024-02-26T15:40:40;100868.03;;;8.51;100.00
47104;BME280;32853;52.164;5.400;2024-02-26T15:43:05;100865.72;;;8.42;100.00
47104;BME280;32853;52.164;5.400;2024-02-26T15:45:30;100865.34;;;8.25;100.00
47104;BME280;32853;52.164;5.400;2024-02-26T15:47:58;100878.03;;;8.37;100.00
47104;BME280;32853;52.164;5.400;2024-02-26T15:50:23;100872.41;;;8.21;100.00
47104;BME280;32853;52.164;5.400;2024-02-26T15:52:49;100877.31;;;8.30;100.00
47104;BME280;32853;52.164;5.400;2024-02-26T15:55:15;100878.09;;;8.35;100.00
47104;BME280;32853;52.164;5.400;2024-02-26T16:00:11;100893.03;;;7.98;100.00
47104;BME280;32853;52.164;5.400;2024-02-26T16:02:37;100890.16;;;7.77;100.00
47104;BME280;32853;52.164;5.400;2024-02-26T16:05:03;100899.66;;;8.09;100.00
47104;BME280;32853;52.164;5.400;2024-02-26T16:09:59;100922.28;;;8.07;100.00
47104;BME280;32853;52.164;5.400;2024-02-26T16:12:30;100911.41;;;7.61;100.00
47104;BME280;32853;52.164;5.400;2024-02-26T16:15:04;100924.34;;;7.64;100.00
47104;BME280;32853;52.164;5.400;2024-02-26T16:17:33;100932.63;;;7.79;100.00
47104;BME280;32853;52.164;5.400;2024-02-26T16:22:34;100950.38;;;7.96;100.00
47104;BME280;32853;52.164;5.400;2024-02-26T16:25:02;100946.81;;;8.00;100.00
47104;BME280;32853;52.164;5.400;2024-02-26T16:27:39;100946.53;;;7.78;100.00
47104;BME280;32853;52.164;5.400;2024-02-26T16:30:08;100954.03;;;8.22;100.00